Time;durP1;ratioP1;P1;durP2;ratioP2;P2;SDS_P1;SDS_P2;PMS_P1;PMS_P2;Temp;Humidity;BMP_temperature;BMP_pressure;BME280_temperature;BME280_humidity;BME280_pressure;Samples;Min_cycle;Max_cycle;Signal;HPM_P1;HPM_P2
2023/09/24 00:00:47;;;;;;;7.43;3.03;;;;;;;;;;5029831;28;20034;-78
2023/09/24 00:03:14;;;;;;;4.93;2.20;;;;;;;;;;5031439;28;20048;-77
2023/09/24 00:05:42;;;;;;;4.22;1.92;;;;;;;;;;5030317;28;20049;-77
2023/09/24 00:08:08;;;;;;;3.70;1.52;;;;;;;;;;5031292;28;20036;-77
2023/09/24 00:10:33;;;;;;;1.83;1.70;;;;;;;;;;5024090;28;20034;-76
2023/09/24 00:12:59;;;;;;;1.75;1.65;;;;;;;;;;5026026;28;20049;-77
2023/09/24 00:15:24;;;;;;;3.42;1.23;;;;;;;;;;5029413;28;20111;-77
2023/09/24 00:17:50;;;;;;;4.55;1.73;;;;;;;;;;5030003;28;20104;-77
2023/09/24 00:20:16;;;;;;;1.55;1.42;;;;;;;;;;5029301;28;20045;-77
2023/09/24 00:22:42;;;;;;;1.60;1.50;;;;;;;;;;5023818;28;20039;-78
2023/09/24 00:25:08;;;;;;;2.00;1.30;;;;;;;;;;5016269;28;20393;-77
2023/09/24 00:27:33;;;;;;;2.00;1.42;;;;;;;;;;5008053;28;20034;-77
2023/09/24 00:29:58;;;;;;;3.05;1.30;;;;;;;;;;5014069;28;20405;-78
2023/09/24 00:32:23;;;;;;;1.60;1.50;;;;;;;;;;5023654;28;20040;-77
2023/09/24 00:34:49;;;;;;;1.88;1.42;;;;;;;;;;5045963;28;20045;-77
2023/09/24 00:37:14;;;;;;;3.85;1.20;;;;;;;;;;5030373;28;20032;-77
2023/09/24 00:39:39;;;;;;;4.45;1.73;;;;;;;;;;5040460;28;20049;-77
2023/09/24 00:42:06;;;;;;;1.88;1.50;;;;;;;;;;5028874;28;20423;-77
2023/09/24 00:44:31;;;;;;;1.50;1.40;;;;;;;;;;5046529;28;20060;-76
2023/09/24 00:46:57;;;;;;;4.80;1.90;;;;;;;;;;5027514;28;20041;-78
2023/09/24 00:49:23;;;;;;;1.60;1.50;;;;;;;;;;5045970;28;20039;-77
2023/09/24 00:51:48;;;;;;;6.63;1.70;;;;;;;;;;5030621;28;20029;-77
2023/09/24 00:54:14;;;;;;;5.57;1.75;;;;;;;;;;5020366;28;20022;-78
2023/09/24 00:56:41;;;;;;;1.70;1.50;;;;;;;;;;5030283;28;20381;-77
2023/09/24 00:59:08;;;;;;;1.67;1.40;;;;;;;;;;5045768;28;20026;-77
2023/09/24 01:01:34;;;;;;;1.70;1.60;;;;;;;;;;5039923;28;20396;-77
2023/09/24 01:03:59;;;;;;;3.38;1.55;;;;;;;;;;5027376;28;20150;-78
2023/09/24 01:06:25;;;;;;;1.70;1.60;;;;;;;;;;5046639;28;20033;-78
2023/09/24 01:08:50;;;;;;;2.63;1.60;;;;;;;;;;5026626;28;20066;-78
2023/09/24 01:11:15;;;;;;;3.08;1.52;;;;;;;;;;5043761;28;20084;-77
2023/09/24 01:13:43;;;;;;;1.70;1.60;;;;;;;;;;5030389;28;20502;-78
2023/09/24 01:16:09;;;;;;;5.47;1.77;;;;;;;;;;5027584;28;20034;-77
2023/09/24 01:18:38;;;;;;;1.67;1.48;;;;;;;;;;5029298;28;20053;-78
2023/09/24 01:21:12;;;;;;;2.75;1.70;;;;;;;;;;5029458;28;20089;-78
2023/09/24 01:23:38;;;;;;;5.13;1.88;;;;;;;;;;5035988;28;20072;-78
2023/09/24 01:26:04;;;;;;;1.92;1.70;;;;;;;;;;5020323;28;20033;-78
2023/09/24 01:28:30;;;;;;;4.25;2.53;;;;;;;;;;5021321;28;20110;-78
2023/09/24 01:30:56;;;;;;;3.08;2.03;;;;;;;;;;5013817;28;20033;-78
2023/09/24 01:33:21;;;;;;;2.90;1.80;;;;;;;;;;5024926;28;20033;-77
2023/09/24 01:35:47;;;;;;;2.05;1.85;;;;;;;;;;5031293;28;20018;-77
2023/09/24 01:38:13;;;;;;;5.15;1.98;;;;;;;;;;5044040;28;20289;-77
2023/09/24 01:40:38;;;;;;;4.85;1.80;;;;;;;;;;5050880;28;20040;-78
2023/09/24 01:43:05;;;;;;;3.85;1.70;;;;;;;;;;5035690;28;20025;-78
2023/09/24 01:45:34;;;;;;;2.33;1.90;;;;;;;;;;5033236;28;20048;-78
2023/09/24 01:48:01;;;;;;;2.15;1.92;;;;;;;;;;5031809;28;20029;-77
2023/09/24 01:50:29;;;;;;;2.70;2.50;;;;;;;;;;5034637;28;20087;-78
2023/09/24 01:52:58;;;;;;;2.70;2.30;;;;;;;;;;5041886;28;20049;-77
2023/09/24 01:55:28;;;;;;;2.22;1.83;;;;;;;;;;5032567;28;20095;-77
2023/09/24 01:57:54;;;;;;;1.98;1.88;;;;;;;;;;5031391;28;20392;-78
2023/09/24 02:00:26;;;;;;;2.90;2.60;;;;;;;;;;5049533;28;20512;-77
2023/09/24 02:02:54;;;;;;;11.50;2.50;;;;;;;;;;5022207;28;20143;-77
2023/09/24 02:05:20;;;;;;;2.42;2.00;;;;;;;;;;5020329;28;20052;-77
2023/09/24 02:07:48;;;;;;;1.95;1.85;;;;;;;;;;5016644;28;20045;-77
2023/09/24 02:10:16;;;;;;;5.05;2.58;;;;;;;;;;5019046;28;20037;-78
2023/09/24 02:12:41;;;;;;;3.35;2.10;;;;;;;;;;5025214;28;20108;-78
2023/09/24 02:15:17;;;;;;;2.28;2.08;;;;;;;;;;5031572;28;20052;-77
2023/09/24 02:17:48;;;;;;;2.45;2.22;;;;;;;;;;5028967;28;20032;-77
2023/09/24 02:20:31;;;;;;;2.55;2.35;;;;;;;;;;5032175;28;20041;-77
2023/09/24 02:23:01;;;;;;;3.87;2.30;;;;;;;;;;5043755;28;20095;-77
2023/09/24 02:25:35;;;;;;;4.07;2.55;;;;;;;;;;5032449;28;20082;-77
2023/09/24 02:28:01;;;;;;;2.83;2.35;;;;;;;;;;5047351;28;20034;-78
2023/09/24 02:30:31;;;;;;;3.40;2.40;;;;;;;;;;5032014;28;20120;-77
2023/09/24 02:32:57;;;;;;;4.20;2.40;;;;;;;;;;5031247;28;20033;-78
2023/09/24 02:35:23;;;;;;;4.72;2.22;;;;;;;;;;5028363;28;20478;-77
2023/09/24 02:37:51;;;;;;;3.08;2.00;;;;;;;;;;5025819;28;20029;-78
2023/09/24 02:40:23;;;;;;;4.45;2.38;;;;;;;;;;5034065;28;20057;-77
2023/09/24 02:42:52;;;;;;;2.15;2.05;;;;;;;;;;5045665;28;20033;-76
2023/09/24 02:45:18;;;;;;;3.72;2.25;;;;;;;;;;5034237;28;20080;-77
2023/09/24 02:47:50;;;;;;;2.00;1.80;;;;;;;;;;5042234;28;20056;-78
2023/09/24 02:50:22;;;;;;;3.08;2.00;;;;;;;;;;5027695;28;20059;-78
2023/09/24 02:52:48;;;;;;;4.05;1.83;;;;;;;;;;5032255;28;20028;-77
2023/09/24 02:55:15;;;;;;;1.98;1.88;;;;;;;;;;5030908;28;20057;-78
2023/09/24 02:57:42;;;;;;;3.33;2.08;;;;;;;;;;5048811;28;20029;-78
2023/09/24 03:00:15;;;;;;;3.92;1.80;;;;;;;;;;5031391;28;20040;-76
2023/09/24 03:02:41;;;;;;;7.57;1.77;;;;;;;;;;5043684;28;20026;-78
2023/09/24 03:05:19;;;;;;;8.80;2.17;;;;;;;;;;5048692;28;20042;-78
2023/09/24 03:07:45;;;;;;;2.50;2.28;;;;;;;;;;5028667;28;20497;-78
2023/09/24 03:10:13;;;;;;;7.90;2.40;;;;;;;;;;5033057;28;20064;-78
2023/09/24 03:12:42;;;;;;;4.53;2.30;;;;;;;;;;5032887;28;20496;-78
2023/09/24 03:15:10;;;;;;;3.45;2.35;;;;;;;;;;5029601;28;20074;-77
2023/09/24 03:17:36;;;;;;;3.65;2.63;;;;;;;;;;5030858;28;20032;-78
2023/09/24 03:20:05;;;;;;;6.70;3.10;;;;;;;;;;5032890;28;20025;-77
2023/09/24 03:22:30;;;;;;;4.18;3.08;;;;;;;;;;5028007;28;20144;-77
2023/09/24 03:24:57;;;;;;;4.80;3.10;;;;;;;;;;5047084;28;20470;-78
2023/09/24 03:27:22;;;;;;;3.25;2.80;;;;;;;;;;5031325;28;20147;-77
2023/09/24 03:29:48;;;;;;;5.18;3.40;;;;;;;;;;5030409;28;20034;-78
2023/09/24 03:32:14;;;;;;;3.10;2.72;;;;;;;;;;5025157;28;20164;-78
2023/09/24 03:34:40;;;;;;;3.20;2.90;;;;;;;;;;5047630;28;20042;-78
2023/09/24 03:37:09;;;;;;;5.07;2.72;;;;;;;;;;5025775;28;20144;-77
2023/09/24 03:39:34;;;;;;;2.85;2.13;;;;;;;;;;5032999;28;20040;-78
2023/09/24 03:42:00;;;;;;;3.97;2.33;;;;;;;;;;5029434;28;20128;-77
2023/09/24 03:44:25;;;;;;;2.42;1.92;;;;;;;;;;5030310;28;20038;-77
2023/09/24 03:46:50;;;;;;;2.05;1.83;;;;;;;;;;5026220;28;20136;-78
2023/09/24 03:49:16;;;;;;;10.82;2.40;;;;;;;;;;5031944;28;20132;-77
2023/09/24 03:51:41;;;;;;;2.92;1.90;;;;;;;;;;5026459;28;20040;-78
2023/09/24 03:54:06;;;;;;;9.18;2.00;;;;;;;;;;5030671;28;20045;-78
2023/09/24 03:56:31;;;;;;;2.72;2.20;;;;;;;;;;5032370;28;20044;-78
2023/09/24 03:58:57;;;;;;;4.47;2.28;;;;;;;;;;5029938;28;20528;-77
2023/09/24 04:01:23;;;;;;;4.15;2.30;;;;;;;;;;5029659;28;20030;-77
2023/09/24 04:03:49;;;;;;;2.33;1.80;;;;;;;;;;5030828;28;20025;-78
2023/09/24 04:06:15;;;;;;;5.13;2.70;;;;;;;;;;5031381;28;20021;-78
2023/09/24 04:08:41;;;;;;;3.72;2.60;;;;;;;;;;5028390;28;20481;-77
2023/09/24 04:11:12;;;;;;;3.45;2.72;;;;;;;;;;5029078;28;20048;-78
2023/09/24 04:13:38;;;;;;;3.33;2.40;;;;;;;;;;5027828;28;20036;-78
2023/09/24 04:16:12;;;;;;;3.10;2.55;;;;;;;;;;5021278;28;20085;-78
2023/09/24 04:18:37;;;;;;;4.55;2.70;;;;;;;;;;5025752;28;20041;-78
2023/09/24 04:21:03;;;;;;;2.08;1.73;;;;;;;;;;5040952;28;20021;-77
2023/09/24 04:23:28;;;;;;;8.23;2.30;;;;;;;;;;5023957;28;20050;-78
2023/09/24 04:25:54;;;;;;;4.18;2.22;;;;;;;;;;5029195;28;20069;-77
2023/09/24 04:28:20;;;;;;;3.15;2.50;;;;;;;;;;5029325;28;20065;-77
2023/09/24 04:30:46;;;;;;;3.25;2.28;;;;;;;;;;5028629;28;20368;-78
2023/09/24 04:33:12;;;;;;;3.42;2.00;;;;;;;;;;5028018;28;20296;-77
2023/09/24 04:35:38;;;;;;;4.75;2.50;;;;;;;;;;5029337;28;20029;-78
2023/09/24 04:38:03;;;;;;;2.58;2.13;;;;;;;;;;5025859;28;20037;-77
2023/09/24 04:40:29;;;;;;;19.83;2.83;;;;;;;;;;5019928;28;20038;-78
2023/09/24 04:42:54;;;;;;;4.07;2.30;;;;;;;;;;5027824;28;20045;-77
2023/09/24 04:45:20;;;;;;;4.60;2.58;;;;;;;;;;5028755;28;20221;-77
2023/09/24 04:47:46;;;;;;;3.50;2.40;;;;;;;;;;5025761;28;20083;-78
2023/09/24 04:50:12;;;;;;;2.92;2.63;;;;;;;;;;5044290;28;20045;-78
2023/09/24 04:52:38;;;;;;;4.43;2.60;;;;;;;;;;5022237;28;20129;-77
2023/09/24 04:55:05;;;;;;;3.60;2.58;;;;;;;;;;5025971;28;20118;-77
2023/09/24 04:57:30;;;;;;;5.70;3.10;;;;;;;;;;5042806;28;20140;-78
2023/09/24 04:59:56;;;;;;;2.45;2.22;;;;;;;;;;5031506;28;20033;-78
2023/09/24 05:02:23;;;;;;;2.70;2.50;;;;;;;;;;5044794;28;20034;-78
2023/09/24 05:04:48;;;;;;;6.07;4.05;;;;;;;;;;5029692;28;20091;-78
2023/09/24 05:07:14;;;;;;;8.40;4.32;;;;;;;;;;5031034;28;20136;-78
2023/09/24 05:09:39;;;;;;;6.80;3.80;;;;;;;;;;5050705;22;20040;-76
2023/09/24 05:12:04;;;;;;;54.97;5.85;;;;;;;;;;5051147;28;20323;-75
2023/09/24 05:14:30;;;;;;;5.18;3.25;;;;;;;;;;5055737;28;20025;-75
2023/09/24 05:16:55;;;;;;;5.18;3.08;;;;;;;;;;5057531;28;20036;-75
2023/09/24 05:19:20;;;;;;;3.92;2.90;;;;;;;;;;5049668;28;20048;-75
2023/09/24 05:21:46;;;;;;;5.82;2.90;;;;;;;;;;5042122;28;20040;-75
2023/09/24 05:24:12;;;;;;;11.90;3.28;;;;;;;;;;5041216;28;20056;-75
2023/09/24 05:26:37;;;;;;;3.97;2.97;;;;;;;;;;5042576;28;20021;-76
2023/09/24 05:29:03;;;;;;;5.97;2.75;;;;;;;;;;5044120;28;20033;-75
2023/09/24 05:31:28;;;;;;;2.42;2.25;;;;;;;;;;5041914;28;20033;-76
2023/09/24 05:33:53;;;;;;;2.78;2.58;;;;;;;;;;5040849;28;20471;-75
2023/09/24 05:36:19;;;;;;;2.78;2.50;;;;;;;;;;5042542;28;20047;-75
2023/09/24 05:38:44;;;;;;;3.40;2.60;;;;;;;;;;5041680;28;20111;-75
2023/09/24 05:41:10;;;;;;;5.55;3.35;;;;;;;;;;5038813;28;20032;-75
2023/09/24 05:43:35;;;;;;;12.85;3.20;;;;;;;;;;5030417;28;20052;-74
2023/09/24 05:46:04;;;;;;;3.17;2.88;;;;;;;;;;5042177;28;20041;-76
2023/09/24 05:48:29;;;;;;;5.22;2.88;;;;;;;;;;5038153;28;20485;-75
2023/09/24 05:50:54;;;;;;;4.53;2.83;;;;;;;;;;5032277;28;20040;-76
2023/09/24 05:53:20;;;;;;;2.72;2.47;;;;;;;;;;5030671;28;20047;-74
2023/09/24 05:55:52;;;;;;;4.80;2.40;;;;;;;;;;5032127;28;20064;-76
2023/09/24 05:58:17;;;;;;;2.50;2.30;;;;;;;;;;5038563;28;20037;-76
2023/09/24 06:00:44;;;;;;;2.30;2.10;;;;;;;;;;5034215;28;20383;-75
2023/09/24 06:03:09;;;;;;;3.63;2.00;;;;;;;;;;5034273;28;20669;-75
2023/09/24 06:05:38;;;;;;;2.30;2.10;;;;;;;;;;5030463;28;20017;-76
2023/09/24 06:08:05;;;;;;;4.70;2.28;;;;;;;;;;5027396;28;20038;-76
2023/09/24 06:10:30;;;;;;;8.48;3.25;;;;;;;;;;5031259;28;20033;-75
2023/09/24 06:12:55;;;;;;;2.92;2.10;;;;;;;;;;5033399;28;20456;-75
2023/09/24 06:15:21;;;;;;;2.75;1.75;;;;;;;;;;5024218;28;20029;-76
2023/09/24 06:17:48;;;;;;;2.90;1.90;;;;;;;;;;5029652;28;20064;-76
2023/09/24 06:20:15;;;;;;;1.85;1.75;;;;;;;;;;5032693;28;20030;-76
2023/09/24 06:22:41;;;;;;;2.95;2.00;;;;;;;;;;5028140;28;20038;-76
2023/09/24 06:25:07;;;;;;;4.82;2.03;;;;;;;;;;5037880;28;20044;-74
2023/09/24 06:27:32;;;;;;;1.90;1.70;;;;;;;;;;5037368;28;20111;-74
2023/09/24 06:29:57;;;;;;;4.85;1.80;;;;;;;;;;5032662;28;20018;-74
2023/09/24 06:32:23;;;;;;;3.58;1.60;;;;;;;;;;5036059;28;20033;-74
2023/09/24 06:34:48;;;;;;;1.90;1.70;;;;;;;;;;5035276;28;20029;-74
2023/09/24 06:37:15;;;;;;;2.20;1.80;;;;;;;;;;5031426;28;20098;-74
2023/09/24 06:39:41;;;;;;;3.47;1.85;;;;;;;;;;5030983;28;20041;-74
2023/09/24 06:42:07;;;;;;;2.63;1.70;;;;;;;;;;5033116;28;20036;-74
2023/09/24 06:44:32;;;;;;;4.38;1.70;;;;;;;;;;5039076;28;20026;-74
2023/09/24 06:46:57;;;;;;;2.72;1.60;;;;;;;;;;5034717;28;20095;-74
2023/09/24 06:49:23;;;;;;;1.95;1.50;;;;;;;;;;5033875;28;20053;-74
2023/09/24 06:51:51;;;;;;;1.77;1.63;;;;;;;;;;5039248;28;20073;-74
2023/09/24 06:54:16;;;;;;;3.38;1.75;;;;;;;;;;5029923;28;20039;-75
2023/09/24 06:56:42;;;;;;;1.88;1.70;;;;;;;;;;5040418;28;20036;-74
2023/09/24 06:59:09;;;;;;;1.90;1.40;;;;;;;;;;5033754;28;20053;-73
2023/09/24 07:01:38;;;;;;;3.65;1.73;;;;;;;;;;5040349;28;20029;-76
2023/09/24 07:04:05;;;;;;;2.75;1.65;;;;;;;;;;5038873;28;20037;-76
2023/09/24 07:06:31;;;;;;;1.73;1.40;;;;;;;;;;5042949;28;20041;-73
2023/09/24 07:08:58;;;;;;;2.00;1.60;;;;;;;;;;5029827;28;20079;-73
2023/09/24 07:11:34;;;;;;;1.65;1.55;;;;;;;;;;5034419;28;20056;-73
2023/09/24 07:14:00;;;;;;;4.07;1.60;;;;;;;;;;5041658;28;20060;-76
2023/09/24 07:16:26;;;;;;;3.05;1.63;;;;;;;;;;5038985;28;20045;-73
2023/09/24 07:18:52;;;;;;;2.05;1.60;;;;;;;;;;5036740;28;20133;-76
2023/09/24 07:21:19;;;;;;;1.65;1.55;;;;;;;;;;5039239;28;20051;-74
2023/09/24 07:23:47;;;;;;;3.83;2.00;;;;;;;;;;5037363;28;20110;-74
2023/09/24 07:26:13;;;;;;;3.42;1.52;;;;;;;;;;5040180;28;20175;-74
2023/09/24 07:28:39;;;;;;;3.78;1.55;;;;;;;;;;5032383;28;20532;-74
2023/09/24 07:31:22;;;;;;;1.70;1.60;;;;;;;;;;5036914;28;20042;-74
2023/09/24 07:33:52;;;;;;;1.58;1.48;;;;;;;;;;5033727;28;20068;-74
2023/09/24 07:36:18;;;;;;;3.53;1.58;;;;;;;;;;5030993;28;20080;-74
2023/09/24 07:38:44;;;;;;;3.00;1.50;;;;;;;;;;5035375;28;20108;-75
2023/09/24 07:41:10;;;;;;;2.25;1.40;;;;;;;;;;5035844;28;20132;-75
2023/09/24 07:43:41;;;;;;;1.88;1.70;;;;;;;;;;5032903;28;20060;-74
2023/09/24 07:46:11;;;;;;;2.42;1.60;;;;;;;;;;5035759;28;20103;-75
2023/09/24 07:48:36;;;;;;;3.80;1.65;;;;;;;;;;5041482;28;20065;-74
2023/09/24 07:51:02;;;;;;;3.05;1.77;;;;;;;;;;5030858;28;20079;-74
2023/09/24 07:53:27;;;;;;;1.85;1.38;;;;;;;;;;5032253;28;20108;-75
2023/09/24 07:55:54;;;;;;;1.70;1.60;;;;;;;;;;5028816;28;20563;-75
2023/09/24 07:58:20;;;;;;;2.05;1.85;;;;;;;;;;5033351;28;20029;-74
2023/09/24 08:00:45;;;;;;;2.53;1.38;;;;;;;;;;5038163;28;20036;-74
2023/09/24 08:03:10;;;;;;;1.48;1.38;;;;;;;;;;5042501;28;20071;-74
2023/09/24 08:05:36;;;;;;;4.03;1.55;;;;;;;;;;5044742;28;20021;-77
2023/09/24 08:08:01;;;;;;;2.75;1.40;;;;;;;;;;5034737;28;20045;-74
2023/09/24 08:10:26;;;;;;;2.63;1.85;;;;;;;;;;5041398;28;20107;-74
2023/09/24 08:12:51;;;;;;;2.72;1.60;;;;;;;;;;5041489;28;20170;-74
2023/09/24 08:15:17;;;;;;;3.88;1.30;;;;;;;;;;5044205;28;20393;-74
2023/09/24 08:17:42;;;;;;;6.43;1.50;;;;;;;;;;5043690;28;20546;-74
2023/09/24 08:20:08;;;;;;;1.50;1.40;;;;;;;;;;5036305;28;20033;-74
2023/09/24 08:22:33;;;;;;;4.25;1.70;;;;;;;;;;5040156;28;20037;-74
2023/09/24 08:24:58;;;;;;;3.70;1.52;;;;;;;;;;5037213;28;20536;-76
2023/09/24 08:27:23;;;;;;;2.72;1.55;;;;;;;;;;5045195;28;20040;-74
2023/09/24 08:29:53;;;;;;;1.80;1.60;;;;;;;;;;5043494;28;20458;-76
2023/09/24 08:32:18;;;;;;;1.90;1.33;;;;;;;;;;5035209;28;20038;-76
2023/09/24 08:34:43;;;;;;;4.82;2.00;;;;;;;;;;5043225;28;20586;-74
2023/09/24 08:37:09;;;;;;;3.35;1.80;;;;;;;;;;5038281;28;20037;-74
2023/09/24 08:39:35;;;;;;;4.60;1.60;;;;;;;;;;5039595;28;20042;-76
2023/09/24 08:42:02;;;;;;;4.35;2.35;;;;;;;;;;5035145;28;20044;-76
2023/09/24 08:44:28;;;;;;;3.13;1.70;;;;;;;;;;5029991;28;20540;-76
2023/09/24 08:46:54;;;;;;;2.70;1.73;;;;;;;;;;5034591;28;20101;-76
2023/09/24 08:49:20;;;;;;;1.30;1.20;;;;;;;;;;5042602;28;20125;-76
2023/09/24 08:51:46;;;;;;;3.90;1.98;;;;;;;;;;5042012;28;20087;-76
2023/09/24 08:54:13;;;;;;;2.28;1.33;;;;;;;;;;5044117;28;20025;-74
2023/09/24 08:56:39;;;;;;;1.83;1.40;;;;;;;;;;5032005;28;20024;-76
2023/09/24 08:59:05;;;;;;;7.22;2.00;;;;;;;;;;5035901;28;20727;-76
2023/09/24 09:01:30;;;;;;;3.47;1.73;;;;;;;;;;5032556;28;20518;-74
2023/09/24 09:03:56;;;;;;;3.25;1.67;;;;;;;;;;5043798;28;20115;-76
2023/09/24 09:06:36;;;;;;;7.65;1.73;;;;;;;;;;5042034;28;20139;-76
2023/09/24 09:09:01;;;;;;;2.78;1.50;;;;;;;;;;5044445;28;20253;-76
2023/09/24 09:11:46;;;;;;;15.00;4.60;;;;;;;;;;5026466;28;20128;-75
2023/09/24 09:14:11;;;;;;;;;;;;;;;;;;5038239;28;20109;-76
2023/09/24 09:16:57;;;;;;;4.00;1.70;;;;;;;;;;5029914;28;19960;-75
2023/09/24 09:19:26;;;;;;;1.40;1.30;;;;;;;;;;5037172;28;20031;-75
2023/09/24 09:21:52;;;;;;;2.78;1.33;;;;;;;;;;5041287;28;20045;-75
2023/09/24 09:24:25;;;;;;;2.33;1.40;;;;;;;;;;5040519;28;20100;-75
2023/09/24 09:26:57;;;;;;;2.13;1.52;;;;;;;;;;5040010;28;20144;-75
2023/09/24 09:29:27;;;;;;;4.22;1.60;;;;;;;;;;5037521;28;20091;-75
2023/09/24 09:31:54;;;;;;;3.08;1.50;;;;;;;;;;5037178;28;20048;-75
2023/09/24 09:34:20;;;;;;;4.90;1.65;;;;;;;;;;5040976;28;20029;-75
2023/09/24 09:36:46;;;;;;;1.48;1.33;;;;;;;;;;5041282;28;20133;-75
2023/09/24 09:39:12;;;;;;;2.67;1.33;;;;;;;;;;5039710;28;20517;-75
2023/09/24 09:41:40;;;;;;;2.58;1.40;;;;;;;;;;5033889;28;20032;-76
2023/09/24 09:44:07;;;;;;;9.43;1.67;;;;;;;;;;5040633;28;20029;-75
2023/09/24 09:46:35;;;;;;;5.40;1.67;;;;;;;;;;5042746;28;20057;-75
2023/09/24 09:49:07;;;;;;;2.55;1.60;;;;;;;;;;5039339;28;20029;-75
2023/09/24 09:51:46;;;;;;;3.22;1.92;;;;;;;;;;5033926;28;20045;-75
2023/09/24 09:54:12;;;;;;;3.05;1.55;;;;;;;;;;5031773;28;20388;-75
2023/09/24 09:56:38;;;;;;;4.78;1.90;;;;;;;;;;5038443;28;20056;-75
2023/09/24 09:59:06;;;;;;;8.50;1.73;;;;;;;;;;5044788;28;20052;-76
2023/09/24 10:01:32;;;;;;;2.85;1.38;;;;;;;;;;5045069;28;20063;-76
2023/09/24 10:04:03;;;;;;;1.48;1.38;;;;;;;;;;5049062;28;20060;-74
2023/09/24 10:06:34;;;;;;;3.45;1.45;;;;;;;;;;5037250;28;20518;-74
2023/09/24 10:09:00;;;;;;;2.08;1.40;;;;;;;;;;5042981;28;20023;-74
2023/09/24 10:11:32;;;;;;;2.42;1.65;;;;;;;;;;5043639;28;20564;-74
2023/09/24 10:14:05;;;;;;;3.70;1.55;;;;;;;;;;5028042;28;20147;-76
2023/09/24 10:16:41;;;;;;;2.45;1.60;;;;;;;;;;5040106;28;20045;-74
2023/09/24 10:19:11;;;;;;;5.15;1.33;;;;;;;;;;5034070;28;20489;-74
2023/09/24 10:21:37;;;;;;;2.00;1.35;;;;;;;;;;5034910;28;20041;-74
2023/09/24 10:24:02;;;;;;;3.17;1.83;;;;;;;;;;5037122;28;20020;-74
2023/09/24 10:27:06;;;;;;;1.80;1.30;;;;;;;;;;5043845;28;20112;-74
2023/09/24 10:29:44;;;;;;;3.13;1.63;;;;;;;;;;5046683;28;20453;-74
2023/09/24 10:32:14;;;;;;;2.83;1.73;;;;;;;;;;5041572;28;20484;-76
2023/09/24 10:34:51;;;;;;;2.75;2.05;;;;;;;;;;5046768;28;20706;-76
2023/09/24 10:37:21;;;;;;;1.40;1.20;;;;;;;;;;5040059;28;20493;-76
2023/09/24 10:40:05;;;;;;;1.95;1.70;;;;;;;;;;5032675;28;20037;-76
2023/09/24 10:42:41;;;;;;;2.80;1.35;;;;;;;;;;5035994;28;20517;-76
2023/09/24 10:45:07;;;;;;;2.00;1.17;;;;;;;;;;5040159;28;20020;-76
2023/09/24 10:47:45;;;;;;;4.40;1.55;;;;;;;;;;5039812;28;20028;-76
2023/09/24 10:50:16;;;;;;;3.05;1.33;;;;;;;;;;5033017;28;20042;-76
2023/09/24 10:52:52;;;;;;;2.53;1.30;;;;;;;;;;5037387;28;20515;-76
2023/09/24 10:55:20;;;;;;;6.22;1.40;;;;;;;;;;5034736;28;20501;-76
2023/09/24 10:57:46;;;;;;;1.27;1.17;;;;;;;;;;5047332;28;20036;-76
2023/09/24 11:00:16;;;;;;;2.10;1.25;;;;;;;;;;5039662;28;20026;-76
2023/09/24 11:02:42;;;;;;;1.08;1.08;;;;;;;;;;5038712;28;20168;-76
2023/09/24 11:05:08;;;;;;;3.67;1.23;;;;;;;;;;5041423;28;20208;-76
2023/09/24 11:07:33;;;;;;;3.03;1.20;;;;;;;;;;5042532;28;20026;-76
2023/09/24 11:09:59;;;;;;;1.20;1.10;;;;;;;;;;5066153;23;20569;-79
2023/09/24 11:12:24;;;;;;;1.67;1.23;;;;;;;;;;5053758;28;20126;-79
2023/09/24 11:14:56;;;;;;;1.35;1.10;;;;;;;;;;5065832;28;20028;-79
2023/09/24 11:17:23;;;;;;;3.70;1.35;;;;;;;;;;5081148;28;20130;-79
2023/09/24 11:19:49;;;;;;;2.78;1.10;;;;;;;;;;5058526;28;20111;-78
2023/09/24 11:22:24;;;;;;;2.85;1.45;;;;;;;;;;5091760;28;20052;-80
2023/09/24 11:25:11;;;;;;;5.97;1.48;;;;;;;;;;5098894;28;20100;-79
2023/09/24 11:27:47;;;;;;;3.85;1.45;;;;;;;;;;5080120;28;20024;-80
2023/09/24 11:30:15;;;;;;;2.60;1.10;;;;;;;;;;5097405;28;20016;-80
2023/09/24 11:32:40;;;;;;;1.13;0.90;;;;;;;;;;5098062;28;20031;-79
2023/09/24 11:35:10;;;;;;;1.23;1.10;;;;;;;;;;5078836;28;20115;-82
2023/09/24 11:38:01;;;;;;;3.47;1.35;;;;;;;;;;5097615;28;20032;-80
2023/09/24 11:40:43;;;;;;;5.20;1.40;;;;;;;;;;5079654;28;20032;-80
2023/09/24 11:43:18;;;;;;;3.65;1.48;;;;;;;;;;5079607;28;20090;-80
2023/09/24 11:45:55;;;;;;;2.17;1.33;;;;;;;;;;5098236;28;20039;-79
2023/09/24 11:48:27;;;;;;;1.58;1.10;;;;;;;;;;5097165;28;20031;-79
2023/09/24 11:51:03;;;;;;;1.70;1.05;;;;;;;;;;5079866;28;20024;-79
2023/09/24 11:53:28;;;;;;;1.33;1.00;;;;;;;;;;5077180;28;20399;-78
2023/09/24 11:55:58;;;;;;;3.20;1.00;;;;;;;;;;5075387;28;20032;-79
2023/09/24 11:58:28;;;;;;;2.10;1.17;;;;;;;;;;5087762;28;20436;-80
2023/09/24 12:00:57;;;;;;;6.90;1.45;;;;;;;;;;5075487;28;20036;-80
2023/09/24 12:03:23;;;;;;;5.80;1.23;;;;;;;;;;5076434;28;20036;-79
2023/09/24 12:05:49;;;;;;;1.63;1.20;;;;;;;;;;5074859;28;20365;-79
2023/09/24 12:08:14;;;;;;;3.53;1.10;;;;;;;;;;5075951;28;20127;-79
2023/09/24 12:10:41;;;;;;;2.08;1.10;;;;;;;;;;5076665;28;20507;-80
2023/09/24 12:13:08;;;;;;;1.65;0.90;;;;;;;;;;5076351;28;20036;-79
2023/09/24 12:15:34;;;;;;;3.65;1.50;;;;;;;;;;5074942;28;20033;-80
2023/09/24 12:18:04;;;;;;;1.42;1.10;;;;;;;;;;5075619;28;20074;-80
2023/09/24 12:20:31;;;;;;;1.50;1.00;;;;;;;;;;5076845;28;20041;-77
2023/09/24 12:22:57;;;;;;;1.60;1.10;;;;;;;;;;5076378;28;20115;-81
2023/09/24 12:25:22;;;;;;;3.90;1.27;;;;;;;;;;5075580;28;20071;-80
2023/09/24 12:27:48;;;;;;;4.38;1.30;;;;;;;;;;5074816;28;20037;-78
2023/09/24 12:30:13;;;;;;;6.10;1.40;;;;;;;;;;5074514;28;20028;-78
2023/09/24 12:32:39;;;;;;;2.33;1.20;;;;;;;;;;5076001;28;20024;-79
2023/09/24 12:35:11;;;;;;;1.33;1.23;;;;;;;;;;5075084;28;20067;-79
2023/09/24 12:37:36;;;;;;;3.08;1.40;;;;;;;;;;5076631;28;20037;-79
2023/09/24 12:40:07;;;;;;;1.08;1.08;;;;;;;;;;5076340;28;20032;-79
2023/09/24 12:42:38;;;;;;;2.03;1.15;;;;;;;;;;5075624;28;20033;-79
2023/09/24 12:45:04;;;;;;;4.25;1.23;;;;;;;;;;5076894;28;20527;-80
2023/09/24 12:47:33;;;;;;;1.48;1.30;;;;;;;;;;5075409;28;20035;-80
2023/09/24 12:50:00;;;;;;;0.90;0.90;;;;;;;;;;5075313;28;20104;-79
2023/09/24 12:52:38;;;;;;;2.63;1.40;;;;;;;;;;5075657;28;20033;-80
2023/09/24 12:55:06;;;;;;;2.35;1.58;;;;;;;;;;5075079;28;20033;-81
2023/09/24 12:57:32;;;;;;;3.25;1.20;;;;;;;;;;5074871;28;20064;-80
2023/09/24 12:59:57;;;;;;;1.40;1.30;;;;;;;;;;5076194;28;20015;-80
2023/09/24 13:02:24;;;;;;;2.65;1.48;;;;;;;;;;5074364;28;20487;-80
2023/09/24 13:04:49;;;;;;;2.45;1.25;;;;;;;;;;5075716;28;20491;-80
2023/09/24 13:07:15;;;;;;;2.13;1.45;;;;;;;;;;5075368;28;20051;-80
2023/09/24 13:09:40;;;;;;;3.38;1.45;;;;;;;;;;5074516;28;20039;-79
2023/09/24 13:12:06;;;;;;;2.13;1.70;;;;;;;;;;5074686;28;20028;-78
2023/09/24 13:14:31;;;;;;;1.88;1.27;;;;;;;;;;5075005;28;20025;-80
2023/09/24 13:16:57;;;;;;;3.85;1.50;;;;;;;;;;5074281;28;20037;-80
2023/09/24 13:19:23;;;;;;;4.03;0.88;;;;;;;;;;5074389;28;20037;-79
2023/09/24 13:21:48;;;;;;;2.88;1.50;;;;;;;;;;5073978;28;20032;-75
2023/09/24 13:24:14;;;;;;;2.00;1.20;;;;;;;;;;5075116;28;20117;-78
2023/09/24 13:26:39;;;;;;;1.58;1.38;;;;;;;;;;5075119;28;20315;-76
2023/09/24 13:29:08;;;;;;;1.15;1.05;;;;;;;;;;5074074;28;20051;-77
2023/09/24 13:31:33;;;;;;;1.75;1.30;;;;;;;;;;5073773;28;20032;-79
2023/09/24 13:34:03;;;;;;;3.47;1.38;;;;;;;;;;5077331;28;20055;-78
2023/09/24 13:36:29;;;;;;;3.38;1.20;;;;;;;;;;5080116;28;20028;-80
2023/09/24 13:38:55;;;;;;;1.52;1.30;;;;;;;;;;5080881;28;20078;-80
2023/09/24 13:41:21;;;;;;;1.75;1.10;;;;;;;;;;5078245;28;20064;-78
2023/09/24 13:43:46;;;;;;;1.42;1.30;;;;;;;;;;5078302;28;20032;-79
2023/09/24 13:46:12;;;;;;;5.45;1.30;;;;;;;;;;5078679;28;20539;-79
2023/09/24 13:48:37;;;;;;;2.70;1.35;;;;;;;;;;5078989;28;20033;-79
2023/09/24 13:51:02;;;;;;;2.40;1.23;;;;;;;;;;5078456;28;20021;-78
2023/09/24 13:53:28;;;;;;;1.20;1.10;;;;;;;;;;5078136;28;20111;-78
2023/09/24 13:55:53;;;;;;;1.67;1.30;;;;;;;;;;5077996;28;20040;-80
2023/09/24 13:58:18;;;;;;;1.63;1.48;;;;;;;;;;5077781;28;20032;-79
2023/09/24 14:00:51;;;;;;;1.90;1.42;;;;;;;;;;5078528;28;20409;-80
2023/09/24 14:03:20;;;;;;;1.23;1.17;;;;;;;;;;5077322;28;20111;-78
2023/09/24 14:05:46;;;;;;;3.70;1.35;;;;;;;;;;5079120;28;20028;-80
2023/09/24 14:13:39;;;;;;;1.95;1.45;;;;;;;;;;5078478;28;20036;-79
2023/09/24 14:16:10;;;;;;;2.08;1.30;;;;;;;;;;5078104;28;20496;-78
2023/09/24 14:18:35;;;;;;;2.42;1.40;;;;;;;;;;5077764;28;20028;-76
2023/09/24 14:21:08;;;;;;;3.17;1.10;;;;;;;;;;5078915;28;20021;-79
2023/09/24 14:23:34;;;;;;;1.30;1.10;;;;;;;;;;5077212;28;20040;-79
2023/09/24 14:25:59;;;;;;;2.47;1.20;;;;;;;;;;5076809;28;20518;-80
2023/09/24 14:28:24;;;;;;;1.35;1.25;;;;;;;;;;5078231;28;20040;-78
2023/09/24 14:30:50;;;;;;;1.40;1.23;;;;;;;;;;5075467;28;20210;-78
2023/09/24 14:33:15;;;;;;;2.88;1.30;;;;;;;;;;5077570;28;20028;-79
2023/09/24 14:35:40;;;;;;;3.13;1.10;;;;;;;;;;5078680;28;20541;-80
2023/09/24 14:38:06;;;;;;;2.55;1.30;;;;;;;;;;5076503;28;20431;-79
2023/09/24 14:40:33;;;;;;;2.47;1.13;;;;;;;;;;5078157;28;20043;-79
2023/09/24 14:42:58;;;;;;;2.90;1.23;;;;;;;;;;5076653;28;20063;-79
2023/09/24 14:45:23;;;;;;;1.95;1.40;;;;;;;;;;5077431;28;20453;-80
2023/09/24 14:47:49;;;;;;;1.33;1.00;;;;;;;;;;5077703;28;20024;-79
2023/09/24 14:50:14;;;;;;;2.15;1.27;;;;;;;;;;5077022;28;20043;-80